createdAt,value
2022-11-22T00:01:38.708Z,29.67
2022-11-22T00:04:08.297Z,30.27
2022-11-22T00:06:38.707Z,30.77
2022-11-22T00:09:07.849Z,29.00
2022-11-22T00:11:36.991Z,28.42
2022-11-22T00:14:06.171Z,29.35
2022-11-22T00:16:35.630Z,29.60
2022-11-22T00:19:05.369Z,29.70
2022-11-22T00:21:34.421Z,29.85
2022-11-22T00:24:05.312Z,31.05
2022-11-22T00:26:34.568Z,30.33
2022-11-22T00:29:03.657Z,30.38
2022-11-22T00:31:33.164Z,30.95
2022-11-22T00:34:02.191Z,32.38
2022-11-22T00:36:31.311Z,31.52
2022-11-22T00:39:00.408Z,32.72
2022-11-22T00:41:30.824Z,32.03
2022-11-22T00:43:59.967Z,32.47
2022-11-22T00:46:29.023Z,31.23
2022-11-22T00:48:58.111Z,31.00
2022-11-22T00:51:27.229Z,30.60
2022-11-22T00:53:56.375Z,27.83
2022-11-22T00:56:25.427Z,31.02
2022-11-22T00:58:55.979Z,31.38
2022-11-22T01:01:25.215Z,29.45
2022-11-22T01:03:54.414Z,27.85
2022-11-22T01:06:23.670Z,28.83
2022-11-22T01:08:52.775Z,27.95
2022-11-22T01:11:22.852Z,29.38
2022-11-22T01:13:51.954Z,28.35
2022-11-22T01:16:22.488Z,29.35
2022-11-22T01:18:51.551Z,27.65
2022-11-22T01:21:20.671Z,28.80
2022-11-22T01:23:51.812Z,27.75
2022-11-22T01:26:20.894Z,28.77
2022-11-22T01:28:49.980Z,27.58
2022-11-22T01:31:19.048Z,26.50
2022-11-22T01:33:49.468Z,26.65
2022-11-22T01:36:18.680Z,27.33
2022-11-22T01:38:47.783Z,26.77
2022-11-22T01:41:17.960Z,28.75
2022-11-22T01:43:47.054Z,26.38
2022-11-22T01:46:31.330Z,26.50
2022-11-22T01:49:06.384Z,27.48
2022-11-22T01:51:39.606Z,25.77
2022-11-22T01:54:13.743Z,26.65
2022-11-22T01:56:46.877Z,26.30
2022-11-22T01:59:21.110Z,26.48
2022-11-22T02:01:50.778Z,26.40
2022-11-22T02:04:23.434Z,28.35
2022-11-22T02:06:58.063Z,28.55
2022-11-22T02:09:28.352Z,28.48
2022-11-22T02:12:01.660Z,27.75
2022-11-22T02:14:32.674Z,28.70
2022-11-22T02:17:01.693Z,27.75
2022-11-22T02:19:43.260Z,26.77
2022-11-22T02:22:26.542Z,27.38
2022-11-22T02:25:03.635Z,27.63
2022-11-22T02:27:34.127Z,29.52
2022-11-22T02:30:03.279Z,27.60
2022-11-22T02:32:36.008Z,27.23
2022-11-22T02:35:21.805Z,28.55
2022-11-22T02:37:59.289Z,28.05
2022-11-22T02:40:31.694Z,28.35
2022-11-22T02:43:06.947Z,27.70
2022-11-22T02:45:36.000Z,27.60
2022-11-22T02:48:11.194Z,28.23
2022-11-22T02:50:40.509Z,28.38
2022-11-22T02:53:11.976Z,27.70
2022-11-22T02:55:41.785Z,27.58
2022-11-22T02:58:12.324Z,28.10
2022-11-22T03:00:41.683Z,29.63
2022-11-22T03:03:10.889Z,30.67
2022-11-22T03:05:40.026Z,29.77
2022-11-22T03:08:09.116Z,31.05
2022-11-22T03:10:38.387Z,29.70
2022-11-22T03:13:07.480Z,29.42
2022-11-22T03:15:38.130Z,30.95
2022-11-22T03:18:07.424Z,29.05
2022-11-22T03:20:36.432Z,29.15
2022-11-22T03:23:05.624Z,28.15
2022-11-22T03:25:37.632Z,27.25
2022-11-22T03:28:07.800Z,28.67
2022-11-22T03:30:41.665Z,29.85
2022-11-22T03:33:11.269Z,29.30
2022-11-22T03:35:40.543Z,29.75
2022-11-22T03:38:09.640Z,30.02
2022-11-22T03:40:38.752Z,28.88
2022-11-22T03:43:07.797Z,28.35
2022-11-22T03:45:38.336Z,26.75
2022-11-22T03:48:07.524Z,26.55
2022-11-22T03:50:36.665Z,27.50
2022-11-22T03:53:05.972Z,26.27
2022-11-22T03:55:35.088Z,28.30
2022-11-22T03:58:04.428Z,28.00
2022-11-22T04:00:34.456Z,27.38
2022-11-22T04:03:04.975Z,29.40
2022-11-22T04:05:34.088Z,27.27
2022-11-22T04:08:03.415Z,25.90
2022-11-22T04:10:32.562Z,27.77
2022-11-22T04:13:01.576Z,25.83
2022-11-22T04:15:29.655Z,27.15
2022-11-22T04:17:58.688Z,28.00
2022-11-22T04:20:49.066Z,27.92
2022-11-22T04:23:20.163Z,27.52
2022-11-22T04:25:50.203Z,28.20
2022-11-22T04:28:24.539Z,26.98
2022-11-22T04:31:21.663Z,26.88
2022-11-22T04:33:50.768Z,27.35
2022-11-22T04:36:21.237Z,27.75
2022-11-22T04:38:50.319Z,27.30
2022-11-22T04:41:21.351Z,27.20
2022-11-22T04:44:07.906Z,27.33
2022-11-22T04:46:38.309Z,28.52
2022-11-22T04:49:07.583Z,27.38
2022-11-22T04:51:55.839Z,29.15
2022-11-22T04:54:25.120Z,28.30
2022-11-22T04:56:54.276Z,26.50
2022-11-22T04:59:23.317Z,27.45
2022-11-22T05:01:54.218Z,27.45
2022-11-22T05:04:23.280Z,27.85
2022-11-22T05:06:53.885Z,28.27
2022-11-22T05:09:22.937Z,28.55
2022-11-22T05:11:52.190Z,26.98
2022-11-22T05:14:21.261Z,28.63
2022-11-22T05:16:50.396Z,27.20
2022-11-22T05:19:19.511Z,28.52
2022-11-22T05:21:48.638Z,30.65
2022-11-22T05:24:18.112Z,29.23
2022-11-22T05:26:47.308Z,29.02
2022-11-22T05:29:17.330Z,28.67
2022-11-22T05:31:51.164Z,27.65
2022-11-22T05:34:20.630Z,29.88
2022-11-22T05:36:49.747Z,28.27
2022-11-22T05:39:20.577Z,27.27
2022-11-22T05:41:56.932Z,27.35
2022-11-22T05:44:26.028Z,27.50
2022-11-22T05:46:55.141Z,26.83
2022-11-22T05:49:24.478Z,31.65
2022-11-22T05:51:53.610Z,29.75
2022-11-22T05:54:24.158Z,29.42
2022-11-22T05:56:53.252Z,30.13
2022-11-22T05:59:22.620Z,29.13
2022-11-22T06:01:51.932Z,28.95
2022-11-22T06:04:21.398Z,28.88
2022-11-22T06:06:50.449Z,29.23
2022-11-22T06:09:19.583Z,28.05
2022-11-22T06:11:50.062Z,30.55
2022-11-22T06:14:19.900Z,26.98
2022-11-22T06:16:49.059Z,26.90
2022-11-22T06:19:20.019Z,27.70
2022-11-22T06:21:49.288Z,28.90
2022-11-22T06:24:19.189Z,27.42
2022-11-22T06:26:49.645Z,28.75
2022-11-22T06:29:19.933Z,27.73
2022-11-22T06:31:49.024Z,27.77
2022-11-22T06:34:18.234Z,29.33
2022-11-22T06:36:47.641Z,29.38
2022-11-22T06:39:17.070Z,27.58
2022-11-22T06:41:46.125Z,27.50
2022-11-22T06:44:17.011Z,27.65
2022-11-22T06:46:46.241Z,27.42
2022-11-22T06:49:15.429Z,28.88
2022-11-22T06:51:44.582Z,29.60
2022-11-22T06:54:14.133Z,26.42
2022-11-22T06:56:43.404Z,28.33
2022-11-22T06:59:12.624Z,29.05
2022-11-22T07:01:43.626Z,29.15
2022-11-22T07:04:12.780Z,27.13
2022-11-22T07:06:44.229Z,28.83
2022-11-22T07:09:13.810Z,28.98
2022-11-22T07:11:42.938Z,27.52
2022-11-22T07:14:12.096Z,26.77
2022-11-22T07:16:43.710Z,28.77
2022-11-22T07:19:12.846Z,27.90
2022-11-22T07:21:41.951Z,28.60
2022-11-22T07:24:11.201Z,27.85
2022-11-22T07:26:40.275Z,26.48
2022-11-22T07:29:09.442Z,27.85
2022-11-22T07:31:38.558Z,26.83
2022-11-22T07:34:08.967Z,28.90
2022-11-22T07:36:38.050Z,28.20
2022-11-22T07:39:07.097Z,28.42
2022-11-22T07:41:36.303Z,27.23
2022-11-22T07:44:05.799Z,26.52
2022-11-22T07:46:34.862Z,25.83
2022-11-22T07:49:04.363Z,27.10
2022-11-22T07:51:35.040Z,25.75
2022-11-22T07:54:04.114Z,25.27
2022-11-22T07:56:33.290Z,24.95
2022-11-22T07:59:04.263Z,25.55
2022-11-22T08:01:33.397Z,27.02
2022-11-22T08:04:02.904Z,26.27
2022-11-22T08:06:32.039Z,25.25
2022-11-22T08:09:02.596Z,25.73
2022-11-22T08:11:31.711Z,23.80
2022-11-22T08:14:00.841Z,24.38
2022-11-22T08:16:30.031Z,24.55
2022-11-22T08:18:59.377Z,22.98
2022-11-22T08:21:28.549Z,23.05
2022-11-22T08:24:00.050Z,23.92
2022-11-22T08:26:31.147Z,23.15
2022-11-22T08:29:00.445Z,23.58
2022-11-22T08:31:32.581Z,24.35
2022-11-22T08:34:01.847Z,23.27
2022-11-22T08:36:31.255Z,23.48
2022-11-22T08:39:00.655Z,25.00
2022-11-22T08:41:31.167Z,24.00
2022-11-22T08:44:00.263Z,23.15
2022-11-22T08:46:29.387Z,22.75
2022-11-22T08:48:58.478Z,23.63
2022-11-22T08:51:27.522Z,23.35
2022-11-22T08:53:56.557Z,24.20
2022-11-22T08:56:25.666Z,22.55
2022-11-22T08:58:56.331Z,19.95
2022-11-22T09:01:25.636Z,21.20
2022-11-22T09:03:54.807Z,22.73
2022-11-22T09:09:36.495Z,24.65
2022-11-22T09:12:02.097Z,26.23
2022-11-22T09:14:32.572Z,25.33
2022-11-22T09:17:01.860Z,25.35
2022-11-22T09:19:31.219Z,25.65
2022-11-22T09:22:00.512Z,24.27
2022-11-22T09:24:29.572Z,25.23
2022-11-22T09:26:58.637Z,24.27
2022-11-22T09:29:27.893Z,23.08
2022-11-22T09:31:58.730Z,23.02
2022-11-22T09:34:27.794Z,23.55
2022-11-22T09:36:56.837Z,25.42
2022-11-22T09:39:30.087Z,23.60
2022-11-22T09:42:35.447Z,22.77
2022-11-22T09:45:53.628Z,23.98
2022-11-22T09:48:44.273Z,23.42
2022-11-22T09:51:18.477Z,21.10
2022-11-22T09:53:54.197Z,23.13
2022-11-22T09:56:27.149Z,25.23
2022-11-22T09:58:59.634Z,24.27
2022-11-22T10:01:32.937Z,22.80
2022-11-22T10:04:09.580Z,23.85
2022-11-22T10:06:42.257Z,23.67
2022-11-22T10:09:27.797Z,24.98
2022-11-22T10:12:02.653Z,25.15
2022-11-22T10:14:45.473Z,26.60
2022-11-22T10:17:29.627Z,26.58
2022-11-22T10:20:08.171Z,25.85
2022-11-22T10:22:37.428Z,24.20
2022-11-22T10:25:18.618Z,24.63
2022-11-22T10:27:57.557Z,24.02
2022-11-22T10:30:37.145Z,24.13
2022-11-22T10:33:15.346Z,24.33
2022-11-22T10:36:02.659Z,22.35
2022-11-22T10:39:03.969Z,22.75
2022-11-22T10:41:47.981Z,22.90
2022-11-22T10:44:31.234Z,22.50
2022-11-22T10:47:12.650Z,23.38
2022-11-22T10:49:56.761Z,22.90
2022-11-22T10:52:37.083Z,21.42
2022-11-22T10:55:24.585Z,23.65
2022-11-22T10:58:04.871Z,22.70
2022-11-22T11:00:39.232Z,23.48
2022-11-22T11:03:25.607Z,22.63
2022-11-22T11:06:21.576Z,22.98
2022-11-22T11:09:48.047Z,22.38
2022-11-22T11:11:48.201Z,22.08
2022-11-22T11:14:31.154Z,23.55
2022-11-22T11:17:02.280Z,22.90
2022-11-22T11:19:38.438Z,22.05
2022-11-22T11:22:37.396Z,22.30
2022-11-22T11:25:31.843Z,21.85
2022-11-22T11:28:06.586Z,20.60
2022-11-22T11:30:41.937Z,22.42
2022-11-22T11:33:24.969Z,21.40
2022-11-22T11:35:57.425Z,21.42
2022-11-22T11:38:35.425Z,25.95
2022-11-22T11:41:25.837Z,21.15
2022-11-22T11:43:57.070Z,20.35
2022-11-22T11:46:28.111Z,20.15
2022-11-22T11:49:09.875Z,20.58
2022-11-22T11:51:42.042Z,20.20
2022-11-22T11:54:15.673Z,18.98
2022-11-22T11:56:49.408Z,20.48
2022-11-22T11:59:20.792Z,37.75
2022-11-22T12:01:59.615Z,20.65
2022-11-22T12:04:32.263Z,20.65
2022-11-22T12:07:05.614Z,21.17
2022-11-22T12:09:38.528Z,20.35
2022-11-22T12:12:19.691Z,19.23
2022-11-22T12:15:10.873Z,20.00
2022-11-22T12:17:51.453Z,19.42
2022-11-22T12:20:27.115Z,19.05
2022-11-22T12:23:11.263Z,19.38
2022-11-22T12:25:41.233Z,18.80
2022-11-22T12:28:21.644Z,19.00
2022-11-22T12:30:57.921Z,21.58
2022-11-22T12:33:32.729Z,20.67
2022-11-22T12:36:04.312Z,19.05
2022-11-22T12:38:39.076Z,19.55
2022-11-22T12:41:13.444Z,18.38
2022-11-22T12:43:53.916Z,19.60
2022-11-22T12:46:27.047Z,19.17
2022-11-22T12:48:59.671Z,18.08
2022-11-22T12:51:38.356Z,19.67
2022-11-22T12:54:15.485Z,19.38
2022-11-22T12:56:50.301Z,20.38
2022-11-22T12:59:33.154Z,21.35
2022-11-22T13:02:13.971Z,20.00
2022-11-22T13:04:53.627Z,19.55
2022-11-22T13:07:34.838Z,20.55
2022-11-22T13:10:14.440Z,20.52
2022-11-22T13:12:46.204Z,20.50
2022-11-22T13:15:29.675Z,19.45
2022-11-22T13:17:59.355Z,20.45
2022-11-22T13:20:41.135Z,18.20
2022-11-22T13:23:33.364Z,19.50
2022-11-22T13:26:14.920Z,19.88
2022-11-22T13:28:46.058Z,22.25
2022-11-22T13:31:20.758Z,20.30
2022-11-22T13:33:59.957Z,19.83
2022-11-22T13:36:41.460Z,20.05
2022-11-22T13:39:20.066Z,21.23
2022-11-22T13:42:04.380Z,20.33
2022-11-22T13:44:51.329Z,19.40
2022-11-22T13:47:43.790Z,19.10
2022-11-22T13:51:01.597Z,19.70
2022-11-22T13:53:33.672Z,20.13
2022-11-22T13:56:50.526Z,21.25
2022-11-22T13:59:19.895Z,20.67
2022-11-22T14:02:05.179Z,18.95
2022-11-22T14:04:43.841Z,17.42
2022-11-22T14:07:33.637Z,18.25
2022-11-22T14:10:05.059Z,18.35
2022-11-22T14:12:55.701Z,17.45
2022-11-22T14:15:49.502Z,16.35
2022-11-22T14:18:52.397Z,17.35
2022-11-22T14:21:47.617Z,15.80
2022-11-22T14:24:41.271Z,16.48
2022-11-22T14:27:27.022Z,17.55
2022-11-22T14:30:19.837Z,15.85
2022-11-22T14:33:04.121Z,16.05
2022-11-22T14:35:36.619Z,16.48
2022-11-22T14:38:33.190Z,16.33
2022-11-22T14:41:45.177Z,16.30
2022-11-22T14:44:20.351Z,16.95
2022-11-22T14:46:56.918Z,17.80
2022-11-22T14:49:44.335Z,16.20
2022-11-22T14:52:22.916Z,16.55
2022-11-22T14:54:58.263Z,17.83
2022-11-22T14:57:29.959Z,18.25
2022-11-22T15:00:19.717Z,17.65
2022-11-22T15:03:40.253Z,17.20
2022-11-22T15:09:19.189Z,17.45
2022-11-22T15:10:04.288Z,16.45
2022-11-22T15:12:58.219Z,15.85
2022-11-22T15:57:32.061Z,50.13
2022-11-22T16:00:02.095Z,48.80
2022-11-22T16:02:41.284Z,25.33
2022-11-22T16:06:06.540Z,42.10
2022-11-22T16:08:03.427Z,25.02
2022-11-22T16:10:37.659Z,26.45
2022-11-22T16:13:27.029Z,25.98
2022-11-22T16:16:20.047Z,25.75
2022-11-22T16:18:50.809Z,25.58
2022-11-22T16:21:29.026Z,27.30
2022-11-22T16:24:12.676Z,31.90
2022-11-22T16:26:58.702Z,30.08
2022-11-22T16:29:33.746Z,29.85
2022-11-22T16:32:11.327Z,29.35
2022-11-22T16:37:38.409Z,28.17
2022-11-22T16:40:12.002Z,29.98
2022-11-22T16:42:41.872Z,31.10
2022-11-22T16:45:19.952Z,31.20
2022-11-22T16:47:58.513Z,30.52
2022-11-22T16:50:40.598Z,32.90
2022-11-22T16:53:13.966Z,33.40
2022-11-22T16:55:44.290Z,34.58
2022-11-22T16:58:19.721Z,33.65
2022-11-22T17:00:53.162Z,32.88
2022-11-22T17:03:27.140Z,35.55
2022-11-22T17:05:56.354Z,34.88
2022-11-22T17:08:25.420Z,35.38
2022-11-22T17:10:54.563Z,36.55
2022-11-22T17:13:26.635Z,37.85
2022-11-22T17:15:58.063Z,35.40
2022-11-22T17:18:27.195Z,35.58
2022-11-22T17:20:56.344Z,33.33
2022-11-22T17:23:29.630Z,32.28
2022-11-22T17:25:58.791Z,33.13
2022-11-22T17:28:28.013Z,34.45
2022-11-22T17:31:00.211Z,33.33
2022-11-22T17:33:29.620Z,34.95
2022-11-22T17:35:58.788Z,35.22
2022-11-22T17:38:28.011Z,34.95
2022-11-22T17:41:00.788Z,36.67
2022-11-22T17:43:31.178Z,37.83
2022-11-22T17:46:02.747Z,37.78
2022-11-22T17:48:32.096Z,38.03
2022-11-22T17:51:05.716Z,39.85
2022-11-22T17:53:35.009Z,38.42
2022-11-22T17:56:11.925Z,37.00
2022-11-22T17:58:41.886Z,38.17
2022-11-22T18:01:15.809Z,38.33
2022-11-22T18:03:46.791Z,39.28
2022-11-22T18:06:18.503Z,36.15
2022-11-22T18:08:47.697Z,40.15
2022-11-22T18:11:17.573Z,37.47
2022-11-22T18:13:46.828Z,37.63
2022-11-22T18:16:18.599Z,38.63
2022-11-22T18:18:56.641Z,37.13
2022-11-22T18:21:29.254Z,38.55
2022-11-22T18:23:59.462Z,37.78
2022-11-22T18:26:44.912Z,39.70
2022-11-22T18:29:41.196Z,37.17
2022-11-22T18:32:07.692Z,36.88
2022-11-22T18:34:37.030Z,36.05
2022-11-22T18:37:06.477Z,36.92
2022-11-22T18:39:38.817Z,35.05
2022-11-22T18:42:11.538Z,34.25
2022-11-22T18:44:40.863Z,30.98
2022-11-22T18:47:11.493Z,29.25
2022-11-22T18:49:40.655Z,28.15
2022-11-22T18:52:12.015Z,28.90
2022-11-22T18:54:44.091Z,26.55
2022-11-22T18:57:13.271Z,26.00
2022-11-22T18:59:42.318Z,25.15
2022-11-22T19:02:13.032Z,25.85
2022-11-22T19:04:42.745Z,25.70
2022-11-22T19:07:14.323Z,23.85
2022-11-22T19:09:43.524Z,24.73
2022-11-22T19:12:12.840Z,23.95
2022-11-22T19:14:42.216Z,21.05
2022-11-22T19:17:13.132Z,22.25
2022-11-22T19:19:42.346Z,20.38
2022-11-22T19:22:11.837Z,21.38
2022-11-22T19:24:44.831Z,19.52
2022-11-22T19:27:16.522Z,21.10
2022-11-22T19:29:45.919Z,19.17
2022-11-22T19:32:16.777Z,18.20
2022-11-22T19:34:48.670Z,17.92
2022-11-22T19:37:18.146Z,17.67
2022-11-22T19:39:48.824Z,18.48
2022-11-22T19:42:18.199Z,17.50
2022-11-22T19:44:49.913Z,16.15
2022-11-22T19:47:23.661Z,15.20
2022-11-22T19:49:53.391Z,13.77
2022-11-22T19:52:22.555Z,13.35
2022-11-22T19:54:53.738Z,13.07
2022-11-22T19:57:23.705Z,13.18
2022-11-22T19:59:58.616Z,11.48
2022-11-22T20:02:32.602Z,11.32
2022-11-22T20:05:02.613Z,9.52
2022-11-22T20:07:32.540Z,9.10
2022-11-22T20:10:04.186Z,8.90
2022-11-22T20:12:33.374Z,8.40
2022-11-22T20:15:02.554Z,7.97
2022-11-22T20:17:33.522Z,7.60
2022-11-22T20:20:04.022Z,6.50
2022-11-22T20:22:33.210Z,6.78
2022-11-22T20:25:02.343Z,6.30
2022-11-22T20:27:31.658Z,5.85
2022-11-22T20:30:01.528Z,5.57
2022-11-22T20:32:32.037Z,4.82
2022-11-22T20:35:01.848Z,5.00
2022-11-22T20:37:31.354Z,4.75
2022-11-22T20:40:00.963Z,4.60
2022-11-22T20:42:34.789Z,3.80
2022-11-22T20:45:08.606Z,3.80
2022-11-22T20:47:39.179Z,6.85
2022-11-22T20:50:10.083Z,4.13
2022-11-22T20:52:40.200Z,3.70
2022-11-22T20:55:11.851Z,3.10
2022-11-22T20:57:42.312Z,3.33
2022-11-22T21:00:13.842Z,2.92
2022-11-22T21:02:47.837Z,3.60
2022-11-22T21:05:17.215Z,3.75
2022-11-22T21:07:46.518Z,2.97
2022-11-22T21:10:16.988Z,3.60
2022-11-22T21:12:46.087Z,3.30
2022-11-22T21:15:19.128Z,3.92
2022-11-22T21:18:17.261Z,3.30
2022-11-22T21:20:38.941Z,4.85
2022-11-22T21:23:08.098Z,4.45
2022-11-22T21:25:37.339Z,9.38
2022-11-22T21:28:07.588Z,5.60
2022-11-22T21:30:37.303Z,8.73
2022-11-22T21:33:07.819Z,8.77
2022-11-22T21:35:36.870Z,9.43
2022-11-22T21:38:06.072Z,6.32
2022-11-22T21:40:35.139Z,14.07
2022-11-22T21:43:04.213Z,8.63
2022-11-22T21:45:33.266Z,13.07
2022-11-22T21:48:04.636Z,5.53
2022-11-22T21:50:35.168Z,8.52
2022-11-22T21:53:04.388Z,9.18
2022-11-22T21:55:33.640Z,7.32
2022-11-22T21:58:02.727Z,5.35
2022-11-22T22:00:31.848Z,6.35
2022-11-22T22:03:01.122Z,7.03
2022-11-22T22:05:30.320Z,5.47
2022-11-22T22:08:00.863Z,5.68
2022-11-22T22:10:29.953Z,5.00
2022-11-22T22:12:59.267Z,4.47
2022-11-22T22:15:28.477Z,4.35
2022-11-22T22:17:57.583Z,4.30
2022-11-22T22:20:26.915Z,3.88
2022-11-22T22:22:56.265Z,3.97
2022-11-22T22:25:26.774Z,3.63
2022-11-22T22:27:58.197Z,3.50
2022-11-22T22:30:27.411Z,3.70
2022-11-22T22:32:56.421Z,3.50
2022-11-22T22:35:25.648Z,3.90
2022-11-22T22:37:54.686Z,3.47
2022-11-22T22:40:23.778Z,3.60
2022-11-22T22:42:55.619Z,3.63
2022-11-22T22:45:24.737Z,3.70
2022-11-22T22:47:53.792Z,3.60
2022-11-22T22:50:22.888Z,3.53
2022-11-22T22:52:54.014Z,3.60
2022-11-22T22:55:23.082Z,3.80
2022-11-22T22:57:54.715Z,3.67
2022-11-22T23:00:24.046Z,3.90
2022-11-22T23:02:53.210Z,4.55
2022-11-22T23:05:23.445Z,3.85
2022-11-22T23:07:52.589Z,4.38
2022-11-22T23:10:21.755Z,4.07
2022-11-22T23:12:50.862Z,4.30
2022-11-22T23:15:38.057Z,3.78
2022-11-22T23:18:10.846Z,4.07
2022-11-22T23:20:39.867Z,3.97
2022-11-22T23:23:08.916Z,3.75
2022-11-22T23:25:37.922Z,4.20
2022-11-22T23:28:07.048Z,3.88
2022-11-22T23:30:37.712Z,3.97
2022-11-22T23:33:06.757Z,3.80
2022-11-22T23:35:36.149Z,3.70
2022-11-22T23:38:05.503Z,3.60
2022-11-22T23:40:34.701Z,3.38
2022-11-22T23:43:03.974Z,3.13
2022-11-22T23:45:32.950Z,2.83
2022-11-22T23:48:03.417Z,2.60
2022-11-22T23:50:37.164Z,2.72
2022-11-22T23:53:06.615Z,2.80
2022-11-22T23:55:35.867Z,2.53
2022-11-22T23:58:04.939Z,2.00
